Time;durP1;ratioP1;P1;durP2;ratioP2;P2;SDS_P1;SDS_P2;PMS_P1;PMS_P2;Temp;Humidity;BMP_temperature;BMP_pressure;BME280_temperature;BME280_humidity;BME280_pressure;Samples;Min_cycle;Max_cycle;Signal;HPM_P1;HPM_P2
2021/10/22 00:01:34;;;;;;;10.53;7.80;;;7.40;99.90;;;;;;5071309;28;20190;-65
2021/10/22 00:03:59;;;;;;;7.97;7.30;;;7.40;99.90;;;;;;5060926;28;20202;-66
2021/10/22 00:06:26;;;;;;;7.50;7.03;;;7.50;99.90;;;;;;5051431;28;20199;-66
2021/10/22 00:08:51;;;;;;;9.43;7.50;;;7.50;99.90;;;;;;5059876;28;20216;-66
2021/10/22 00:11:17;;;;;;;9.03;7.40;;;7.50;99.90;;;;;;5071265;28;20631;-65
2021/10/22 00:13:42;;;;;;;10.37;7.70;;;7.50;99.90;;;;;;5053921;28;20217;-66
2021/10/22 00:16:08;;;;;;;7.67;7.10;;;7.50;99.90;;;;;;5051244;28;20624;-66
2021/10/22 00:18:34;;;;;;;10.90;8.13;;;7.50;99.90;;;;;;5067037;28;20205;-66
2021/10/22 00:21:00;;;;;;;8.27;7.77;;;7.50;99.90;;;;;;5070925;28;20220;-66
2021/10/22 00:23:25;;;;;;;9.40;7.93;;;7.40;99.90;;;;;;5056759;28;20559;-66
2021/10/22 00:25:51;;;;;;;7.40;7.00;;;7.40;99.90;;;;;;5051250;28;20587;-65
2021/10/22 00:28:17;;;;;;;7.60;7.20;;;7.40;99.90;;;;;;5063317;28;20192;-66
2021/10/22 00:30:43;;;;;;;9.20;7.23;;;7.40;99.90;;;;;;5070707;28;20591;-67
2021/10/22 00:33:09;;;;;;;8.37;7.60;;;7.40;99.90;;;;;;5053622;28;20217;-66
2021/10/22 00:35:35;;;;;;;7.97;7.20;;;7.50;99.90;;;;;;5051308;28;20166;-66
2021/10/22 00:38:01;;;;;;;7.00;6.53;;;7.50;99.90;;;;;;5066653;28;20248;-66
2021/10/22 00:40:26;;;;;;;7.90;7.50;;;7.50;99.90;;;;;;5070587;28;20762;-66
2021/10/22 00:42:54;;;;;;;7.80;7.13;;;7.40;99.90;;;;;;5056725;28;20175;-66
2021/10/22 00:45:20;;;;;;;9.77;8.57;;;7.40;99.90;;;;;;5050911;28;20596;-66
2021/10/22 00:47:45;;;;;;;7.27;6.97;;;7.40;99.90;;;;;;5063597;28;20217;-66
2021/10/22 00:50:11;;;;;;;7.67;7.13;;;7.30;99.90;;;;;;5070592;28;20194;-66
2021/10/22 00:52:38;;;;;;;8.20;7.77;;;7.30;99.90;;;;;;5061186;28;20186;-66
2021/10/22 00:55:04;;;;;;;8.90;8.13;;;7.30;99.90;;;;;;5073170;28;20186;-66
2021/10/22 00:57:30;;;;;;;8.23;7.57;;;7.30;99.90;;;;;;5065075;28;20711;-66
2021/10/22 00:59:55;;;;;;;8.13;7.63;;;7.20;99.90;;;;;;5059042;28;20190;-66
2021/10/22 01:02:21;;;;;;;8.00;7.40;;;7.20;99.90;;;;;;5074632;28;20255;-65
2021/10/22 01:04:47;;;;;;;7.90;7.20;;;7.20;99.90;;;;;;5071572;28;20175;-65
2021/10/22 01:07:17;;;;;;;8.70;8.20;;;7.20;99.90;;;;;;5054790;28;20571;-66
2021/10/22 01:09:46;;;;;;;8.13;7.47;;;7.10;99.90;;;;;;5055802;28;20202;-67
2021/10/22 01:12:12;;;;;;;8.93;8.07;;;7.00;99.90;;;;;;5073131;28;20182;-66
2021/10/22 01:14:39;;;;;;;8.60;8.03;;;7.00;99.90;;;;;;5073502;28;20170;-66
2021/10/22 01:17:04;;;;;;;10.17;9.20;;;7.00;99.90;;;;;;5054245;28;20203;-67
2021/10/22 01:19:30;;;;;;;10.10;8.50;;;6.90;99.90;;;;;;5053888;28;20170;-66
2021/10/22 01:21:56;;;;;;;11.17;8.93;;;6.90;99.90;;;;;;5073359;28;20268;-66
2021/10/22 01:24:22;;;;;;;10.57;9.70;;;6.80;99.90;;;;;;5072745;28;20444;-65
2021/10/22 01:26:48;;;;;;;9.63;9.03;;;6.80;99.90;;;;;;5055639;28;20201;-66
2021/10/22 01:29:16;;;;;;;11.10;9.50;;;6.80;99.90;;;;;;5065362;28;20181;-65
2021/10/22 01:31:42;;;;;;;11.23;10.10;;;6.80;99.90;;;;;;5073716;28;20190;-66
2021/10/22 01:34:08;;;;;;;10.00;9.40;;;6.70;99.90;;;;;;5061384;28;20243;-65
2021/10/22 01:36:34;;;;;;;10.63;8.97;;;6.70;99.90;;;;;;5053708;28;20697;-66
2021/10/22 01:39:02;;;;;;;9.77;8.90;;;6.70;99.90;;;;;;5062826;28;20167;-66
2021/10/22 01:41:28;;;;;;;9.10;8.40;;;6.60;99.90;;;;;;5073726;28;20186;-66
2021/10/22 01:43:55;;;;;;;9.20;8.37;;;6.60;99.90;;;;;;5064628;28;20163;-65
2021/10/22 01:46:21;;;;;;;8.77;7.90;;;6.60;99.90;;;;;;5053991;28;20189;-66
2021/10/22 01:48:47;;;;;;;9.03;8.17;;;6.50;99.90;;;;;;5053236;28;20178;-65
2021/10/22 01:51:12;;;;;;;8.20;7.57;;;6.40;99.90;;;;;;5053407;28;20567;-65
2021/10/22 01:53:38;;;;;;;8.87;8.03;;;6.40;99.90;;;;;;5059128;28;20170;-65
2021/10/22 01:56:04;;;;;;;11.50;8.50;;;6.30;99.90;;;;;;5072225;28;20174;-66
2021/10/22 01:58:29;;;;;;;9.17;8.37;;;6.30;99.90;;;;;;5069145;28;20171;-66
2021/10/22 02:00:55;;;;;;;9.30;8.30;;;6.20;99.90;;;;;;5051531;28;20214;-65
2021/10/22 02:03:21;;;;;;;9.90;9.07;;;6.30;99.90;;;;;;5056179;28;20678;-66
2021/10/22 02:05:46;;;;;;;8.40;7.63;;;6.20;99.90;;;;;;5073112;28;20174;-66
2021/10/22 02:08:12;;;;;;;8.13;7.50;;;6.20;99.90;;;;;;5071566;28;20636;-66
2021/10/22 02:10:38;;;;;;;8.90;8.10;;;6.20;99.90;;;;;;5052718;28;20202;-66
2021/10/22 02:13:04;;;;;;;8.70;7.87;;;6.20;99.90;;;;;;5067099;28;20185;-66
2021/10/22 02:15:29;;;;;;;8.77;8.00;;;6.10;99.90;;;;;;5073652;28;20170;-65
2021/10/22 02:17:55;;;;;;;8.67;7.97;;;6.10;99.90;;;;;;5059535;28;20203;-65
2021/10/22 02:20:21;;;;;;;9.03;8.03;;;6.10;99.90;;;;;;5052812;28;20194;-65
2021/10/22 02:22:47;;;;;;;8.60;7.90;;;6.10;99.90;;;;;;5064163;28;20695;-65
2021/10/22 02:25:13;;;;;;;10.57;8.07;;;6.10;99.90;;;;;;5073126;28;20258;-65
2021/10/22 02:27:38;;;;;;;8.20;7.40;;;6.10;99.90;;;;;;5062622;28;20193;-66
2021/10/22 02:30:05;;;;;;;8.53;7.93;;;6.10;99.90;;;;;;5052781;28;20198;-65
2021/10/22 02:32:31;;;;;;;14.60;8.63;;;6.10;99.90;;;;;;5060528;28;20218;-66
2021/10/22 02:34:57;;;;;;;9.60;8.60;;;6.00;99.90;;;;;;5071557;28;20202;-66
2021/10/22 02:37:23;;;;;;;14.23;8.43;;;6.00;99.90;;;;;;5053031;28;20210;-66
2021/10/22 02:39:48;;;;;;;9.63;8.73;;;6.00;99.90;;;;;;5052421;28;20562;-66
2021/10/22 02:42:14;;;;;;;8.60;8.00;;;6.00;99.90;;;;;;5071677;28;20170;-65
2021/10/22 02:44:40;;;;;;;9.03;8.10;;;6.00;99.90;;;;;;5072566;28;20170;-66
2021/10/22 02:47:05;;;;;;;10.03;8.27;;;5.90;99.90;;;;;;5054215;28;20190;-65
2021/10/22 02:49:32;;;;;;;8.80;8.20;;;5.90;99.90;;;;;;5051931;28;20266;-66
2021/10/22 02:51:57;;;;;;;8.30;7.80;;;5.90;99.90;;;;;;5069826;28;20178;-66
2021/10/22 02:54:23;;;;;;;10.17;7.80;;;5.90;99.90;;;;;;5072371;28;20177;-66
2021/10/22 02:56:49;;;;;;;8.50;7.77;;;5.80;99.90;;;;;;5054537;28;20302;-66
2021/10/22 02:59:15;;;;;;;9.87;9.17;;;5.80;99.90;;;;;;5051891;28;20170;-66
2021/10/22 03:01:40;;;;;;;8.90;8.13;;;5.80;99.90;;;;;;5066019;28;20307;-66
2021/10/22 03:04:06;;;;;;;11.47;7.20;;;5.80;99.90;;;;;;5072379;28;20699;-65
2021/10/22 03:06:32;;;;;;;10.53;8.00;;;5.80;99.90;;;;;;5056357;28;20544;-66
2021/10/22 03:08:57;;;;;;;8.13;7.43;;;5.80;99.90;;;;;;5050765;28;20628;-68
2021/10/22 03:11:23;;;;;;;10.17;9.17;;;5.70;99.90;;;;;;5063773;28;20210;-65
2021/10/22 03:13:49;;;;;;;9.50;7.60;;;5.70;99.90;;;;;;5072291;28;20176;-66
2021/10/22 03:16:15;;;;;;;8.47;7.80;;;5.70;99.90;;;;;;5060727;28;20179;-65
2021/10/22 03:18:40;;;;;;;9.03;7.77;;;5.60;99.90;;;;;;5058079;28;20232;-66
2021/10/22 03:21:06;;;;;;;8.20;7.67;;;5.60;99.90;;;;;;5071692;28;20218;-66
2021/10/22 03:23:32;;;;;;;8.23;7.50;;;5.60;99.90;;;;;;5067296;28;20660;-66
2021/10/22 03:25:57;;;;;;;11.63;7.43;;;5.60;99.90;;;;;;5052145;28;20167;-65
2021/10/22 03:28:23;;;;;;;8.30;7.63;;;5.60;99.90;;;;;;5054449;28;20175;-64
2021/10/22 03:30:49;;;;;;;9.40;8.47;;;5.60;99.90;;;;;;5071607;28;20186;-65
2021/10/22 03:33:14;;;;;;;10.03;7.60;;;5.60;99.90;;;;;;5070160;28;20174;-66
2021/10/22 03:35:40;;;;;;;10.13;8.10;;;5.50;99.90;;;;;;5071436;28;20174;-66
2021/10/22 03:38:06;;;;;;;10.57;7.83;;;5.50;99.90;;;;;;5071346;28;20240;-65
2021/10/22 03:40:31;;;;;;;8.33;7.63;;;5.50;99.90;;;;;;5058157;28;20695;-66
2021/10/22 03:43:00;;;;;;;10.33;8.37;;;5.50;99.90;;;;;;5071624;28;20202;-66
2021/10/22 03:45:26;;;;;;;11.27;7.97;;;5.50;99.90;;;;;;5072173;28;20216;-66
2021/10/22 03:47:55;;;;;;;8.53;7.83;;;5.50;99.90;;;;;;5070250;28;20254;-64
2021/10/22 03:50:24;;;;;;;12.53;8.40;;;5.60;99.90;;;;;;5070838;28;20556;-65
2021/10/22 03:52:50;;;;;;;9.43;8.53;;;5.60;99.90;;;;;;5055159;28;20265;-65
2021/10/22 03:55:16;;;;;;;9.13;8.43;;;5.60;99.90;;;;;;5051517;28;20171;-65
2021/10/22 03:57:42;;;;;;;11.10;8.20;;;5.60;99.90;;;;;;5064423;28;20251;-65
2021/10/22 04:00:09;;;;;;;9.50;8.50;;;5.60;99.90;;;;;;5071260;28;20264;-66
2021/10/22 04:02:34;;;;;;;9.03;8.13;;;5.70;99.90;;;;;;5056636;28;20656;-65
2021/10/22 04:05:03;;;;;;;10.93;8.87;;;5.70;99.90;;;;;;5051121;28;20206;-65
2021/10/22 04:07:29;;;;;;;11.43;8.60;;;5.70;99.90;;;;;;5062704;28;20543;-66
2021/10/22 04:09:54;;;;;;;9.30;8.20;;;5.70;99.90;;;;;;5094189;22;20233;-67
2021/10/22 04:12:20;;;;;;;9.40;8.53;;;5.70;99.90;;;;;;5051404;28;20556;-67
2021/10/22 04:14:46;;;;;;;9.13;8.17;;;5.80;99.90;;;;;;5055314;28;20196;-67
2021/10/22 04:17:11;;;;;;;9.90;8.93;;;5.80;99.90;;;;;;5071299;28;20314;-67
2021/10/22 04:19:38;;;;;;;9.73;8.43;;;5.90;99.90;;;;;;5053438;28;20677;-67
2021/10/22 04:22:03;;;;;;;8.60;7.77;;;6.00;99.90;;;;;;5030170;28;20172;-67
2021/10/22 04:24:29;;;;;;;13.00;8.60;;;6.00;99.90;;;;;;5046366;28;20266;-67
2021/10/22 04:26:54;;;;;;;9.47;8.77;;;6.10;99.90;;;;;;5050174;28;20179;-67
2021/10/22 04:29:20;;;;;;;8.67;8.00;;;6.10;99.90;;;;;;5039552;28;20236;-67
2021/10/22 04:31:46;;;;;;;8.47;7.70;;;6.10;99.90;;;;;;5035045;28;20188;-67
2021/10/22 04:34:11;;;;;;;8.40;7.70;;;6.20;99.90;;;;;;5046891;28;20183;-67
2021/10/22 04:36:38;;;;;;;8.50;7.90;;;6.30;99.90;;;;;;5053642;28;20198;-67
2021/10/22 04:41:49;;;;;;;10.20;9.50;;;6.40;99.90;;;;;;5034851;28;20210;-67
2021/10/22 04:44:16;;;;;;;10.47;9.60;;;6.30;99.90;;;;;;5038251;28;20179;-67
2021/10/22 04:46:42;;;;;;;12.07;10.83;;;6.40;99.90;;;;;;5034998;28;20171;-67
2021/10/22 04:49:08;;;;;;;10.50;9.57;;;6.40;99.90;;;;;;5048088;28;20186;-67
2021/10/22 04:51:34;;;;;;;9.97;9.20;;;6.30;99.90;;;;;;5054658;28;20274;-67
2021/10/22 04:53:59;;;;;;;9.47;8.57;;;6.30;99.90;;;;;;5054610;28;20411;-67
2021/10/22 04:56:25;;;;;;;9.30;8.37;;;6.30;99.90;;;;;;5054123;28;20272;-67
2021/10/22 04:58:51;;;;;;;11.77;8.70;;;6.20;99.90;;;;;;5043483;28;20187;-67
2021/10/22 05:01:16;;;;;;;10.47;8.20;;;6.20;99.90;;;;;;5034024;28;20675;-67
2021/10/22 05:03:42;;;;;;;8.97;8.30;;;6.20;99.90;;;;;;5042381;28;20270;-67
2021/10/22 05:06:08;;;;;;;9.77;8.97;;;6.20;99.90;;;;;;5054591;28;20171;-67
2021/10/22 05:08:33;;;;;;;9.43;8.63;;;6.20;99.90;;;;;;5037021;28;20187;-67
2021/10/22 05:11:00;;;;;;;11.10;8.87;;;6.10;99.90;;;;;;5036486;28;20203;-67
2021/10/22 05:13:27;;;;;;;11.40;10.30;;;6.10;99.90;;;;;;5053591;28;20253;-67
2021/10/22 05:15:52;;;;;;;11.83;8.90;;;6.20;99.90;;;;;;5052908;28;20558;-67
2021/10/22 05:18:18;;;;;;;12.70;11.03;;;6.20;99.90;;;;;;5033939;28;20284;-67
2021/10/22 05:20:44;;;;;;;11.43;10.33;;;6.20;99.90;;;;;;5034165;28;20675;-67
2021/10/22 05:23:10;;;;;;;12.87;11.53;;;6.10;99.90;;;;;;5054066;28;20179;-67
2021/10/22 05:25:36;;;;;;;10.80;10.03;;;6.10;99.90;;;;;;5054146;28;20186;-67
2021/10/22 05:28:01;;;;;;;9.97;9.17;;;6.10;99.90;;;;;;5036039;28;20195;-67
2021/10/22 05:30:27;;;;;;;13.07;8.70;;;6.10;99.90;;;;;;5033686;28;20203;-67
2021/10/22 05:32:53;;;;;;;8.53;7.90;;;6.20;99.90;;;;;;5048876;28;20228;-67
2021/10/22 05:35:19;;;;;;;8.57;7.80;;;6.20;99.90;;;;;;5054107;28;20175;-67
2021/10/22 05:37:44;;;;;;;8.73;7.93;;;6.30;99.90;;;;;;5039040;28;20270;-67
2021/10/22 05:40:10;;;;;;;8.13;7.50;;;6.30;99.90;;;;;;5043495;28;20203;-67
2021/10/22 05:42:36;;;;;;;9.10;8.47;;;6.30;99.90;;;;;;5053683;28;20174;-67
2021/10/22 05:45:03;;;;;;;9.13;8.53;;;6.30;99.90;;;;;;5045336;28;20179;-67
2021/10/22 05:47:29;;;;;;;8.80;8.03;;;6.30;99.90;;;;;;5033786;28;20640;-67
2021/10/22 05:49:55;;;;;;;8.37;7.57;;;6.30;99.90;;;;;;5039527;28;20186;-67
2021/10/22 05:52:20;;;;;;;8.37;7.67;;;6.30;99.90;;;;;;5053419;28;20183;-67
2021/10/22 05:54:46;;;;;;;8.47;7.67;;;6.30;99.90;;;;;;5048281;28;20186;-67
2021/10/22 05:57:12;;;;;;;8.80;8.00;;;6.30;99.90;;;;;;5032127;28;20207;-67
2021/10/22 05:59:37;;;;;;;8.23;7.67;;;6.20;99.90;;;;;;5036073;28;20189;-67
2021/10/22 06:02:03;;;;;;;8.43;7.90;;;6.30;99.90;;;;;;5053528;28;20210;-67
2021/10/22 06:04:28;;;;;;;8.23;7.63;;;6.20;99.90;;;;;;5051496;28;20258;-67
2021/10/22 06:06:54;;;;;;;8.00;7.50;;;6.30;99.90;;;;;;5033585;28;20214;-67
2021/10/22 06:09:20;;;;;;;7.63;7.23;;;6.30;99.90;;;;;;5038779;28;20218;-67
2021/10/22 06:11:49;;;;;;;9.50;8.40;;;6.30;99.90;;;;;;5053161;28;20620;-67
2021/10/22 06:14:15;;;;;;;8.17;7.63;;;6.30;99.90;;;;;;5048405;28;20222;-67
2021/10/22 06:16:40;;;;;;;8.63;8.13;;;6.30;99.90;;;;;;5040984;28;20601;-67
2021/10/22 06:19:06;;;;;;;13.73;12.33;;;6.40;99.90;;;;;;5049754;28;20180;-67
2021/10/22 06:21:55;;;;;;;11.73;10.53;;;6.50;99.90;;;;;;5032856;28;20199;-67
2021/10/22 06:24:21;;;;;;;12.70;11.73;;;6.50;99.90;;;;;;5036030;28;20662;-67
2021/10/22 06:26:47;;;;;;;13.10;11.43;;;6.60;99.90;;;;;;5051830;28;20179;-67
2021/10/22 06:29:13;;;;;;;9.27;8.57;;;6.60;99.90;;;;;;5050122;28;20208;-67
2021/10/22 06:31:41;;;;;;;9.67;8.87;;;6.60;99.90;;;;;;5032739;28;20199;-67
2021/10/22 06:34:08;;;;;;;8.43;7.63;;;6.60;99.90;;;;;;5044292;28;20187;-67
2021/10/22 06:36:34;;;;;;;8.67;7.97;;;6.60;99.90;;;;;;5052475;28;20206;-67
2021/10/22 06:39:02;;;;;;;9.30;8.40;;;6.60;99.90;;;;;;5039668;28;20190;-67
2021/10/22 06:41:27;;;;;;;8.77;8.07;;;6.60;99.90;;;;;;5032537;28;20661;-67
2021/10/22 06:43:53;;;;;;;9.07;8.33;;;6.60;99.90;;;;;;5042225;28;20317;-67
2021/10/22 06:46:20;;;;;;;11.33;8.80;;;6.60;99.90;;;;;;5052458;28;20254;-67
2021/10/22 06:48:46;;;;;;;8.27;7.57;;;6.60;99.90;;;;;;5044412;28;20176;-67
2021/10/22 06:51:14;;;;;;;8.30;7.60;;;6.60;99.90;;;;;;5031700;28;20610;-67
2021/10/22 06:53:40;;;;;;;9.10;7.83;;;6.50;99.90;;;;;;5039171;28;20171;-67
2021/10/22 06:56:07;;;;;;;7.83;7.33;;;6.50;99.90;;;;;;5052434;28;20198;-67
2021/10/22 06:58:33;;;;;;;7.40;6.90;;;6.50;99.90;;;;;;5046461;28;20175;-67
2021/10/22 07:00:59;;;;;;;7.80;7.30;;;6.60;99.90;;;;;;5033126;28;20198;-67
2021/10/22 07:03:27;;;;;;;7.03;6.60;;;6.60;99.90;;;;;;5052472;28;20250;-66
2021/10/22 07:08:22;;;;;;;10.13;6.63;;;6.60;99.90;;;;;;5032130;28;20690;-67
2021/10/22 07:10:49;;;;;;;8.13;7.00;;;6.80;99.90;;;;;;5030229;28;20269;-68
2021/10/22 07:13:15;;;;;;;7.73;7.13;;;7.00;99.90;;;;;;5032642;28;20183;-65
2021/10/22 07:15:40;;;;;;;7.70;7.30;;;7.30;99.90;;;;;;5031788;28;20569;-66
2021/10/22 07:18:06;;;;;;;6.97;6.47;;;7.70;99.90;;;;;;5048975;28;20206;-68
2021/10/22 07:20:33;;;;;;;7.20;6.70;;;8.00;99.90;;;;;;5051049;28;20682;-65
2021/10/22 07:23:17;;;;;;;7.80;6.67;;;8.20;99.90;;;;;;5036346;28;20182;-66
2021/10/22 07:25:43;;;;;;;6.77;6.17;;;8.40;99.90;;;;;;5030572;28;20258;-67
2021/10/22 07:28:12;;;;;;;7.57;6.80;;;8.70;99.90;;;;;;5046436;28;20257;-67
2021/10/22 07:30:41;;;;;;;7.10;6.43;;;8.90;99.90;;;;;;5031630;28;20234;-66
2021/10/22 07:33:07;;;;;;;7.73;6.47;;;9.20;99.90;;;;;;5047020;28;20587;-66
2021/10/22 07:35:36;;;;;;;6.47;5.87;;;9.40;99.90;;;;;;5046405;28;20248;-66
2021/10/22 07:38:01;;;;;;;6.93;6.43;;;9.70;99.90;;;;;;5051281;28;20289;-67
2021/10/22 07:40:27;;;;;;;6.43;6.00;;;9.90;99.90;;;;;;5041599;28;20756;-67
2021/10/22 07:42:53;;;;;;;6.83;6.10;;;10.30;99.90;;;;;;5048360;28;20211;-66
2021/10/22 07:45:19;;;;;;;6.20;5.70;;;10.50;99.90;;;;;;5050159;28;20170;-67
2021/10/22 07:47:44;;;;;;;6.83;6.23;;;10.60;99.90;;;;;;5039770;28;20236;-67
2021/10/22 07:50:10;;;;;;;6.80;6.17;;;10.60;99.90;;;;;;5029521;28;20199;-66
2021/10/22 07:52:36;;;;;;;7.50;6.80;;;10.50;99.90;;;;;;5038165;28;20186;-66
2021/10/22 07:55:04;;;;;;;6.63;6.13;;;10.60;99.90;;;;;;5050064;28;20179;-66
2021/10/22 07:57:30;;;;;;;6.87;6.40;;;10.60;99.90;;;;;;5049450;28;20293;-67
2021/10/22 08:00:00;;;;;;;8.30;6.10;;;10.90;99.90;;;;;;5050908;28;20189;-67
2021/10/22 08:02:25;;;;;;;7.07;6.17;;;11.10;99.90;;;;;;5049195;28;20179;-67
2021/10/22 08:04:52;;;;;;;6.90;6.30;;;11.20;99.90;;;;;;5050903;28;20173;-67
2021/10/22 08:07:21;;;;;;;6.73;6.17;;;11.40;99.90;;;;;;5043960;28;20215;-68
2021/10/22 08:09:48;;;;;;;6.83;6.23;;;11.40;99.90;;;;;;5030837;28;20171;-66
2021/10/22 08:12:15;;;;;;;6.10;5.57;;;11.50;99.90;;;;;;5043807;28;20519;-66
2021/10/22 08:14:42;;;;;;;6.47;5.90;;;11.80;99.90;;;;;;5051400;28;20591;-66
2021/10/22 08:17:08;;;;;;;7.10;6.60;;;11.70;99.90;;;;;;5048442;28;20209;-67
2021/10/22 08:19:34;;;;;;;7.07;6.33;;;11.50;99.90;;;;;;5050806;28;20171;-66
2021/10/22 08:24:33;;;;;;;10.53;6.30;;;11.70;99.90;;;;;;5031321;28;20168;-67
2021/10/22 08:27:00;;;;;;;7.33;6.60;;;11.60;99.90;;;;;;5051152;28;20179;-67
2021/10/22 08:29:27;;;;;;;6.60;6.13;;;11.70;99.90;;;;;;5049589;28;20229;-66
2021/10/22 08:31:53;;;;;;;7.47;6.77;;;11.70;99.90;;;;;;5033559;28;20261;-66
2021/10/22 08:34:19;;;;;;;6.77;6.23;;;11.80;99.90;;;;;;5031071;28;20175;-66
2021/10/22 08:36:44;;;;;;;6.90;6.40;;;11.90;99.90;;;;;;5047506;28;20213;-67
2021/10/22 08:39:11;;;;;;;6.40;6.03;;;11.90;99.90;;;;;;5051042;28;20166;-68
2021/10/22 08:41:37;;;;;;;6.87;6.37;;;12.00;99.90;;;;;;5049130;28;20248;-66
2021/10/22 08:44:04;;;;;;;5.60;5.30;;;11.90;99.90;;;;;;5051075;28;20209;-66
2021/10/22 08:46:32;;;;;;;6.47;5.87;;;12.00;99.90;;;;;;5037364;28;20176;-66
2021/10/22 08:48:59;;;;;;;6.53;5.87;;;12.00;99.90;;;;;;5029142;28;20171;-68
2021/10/22 08:51:26;;;;;;;13.30;8.77;;;12.20;99.90;;;;;;5041626;28;20682;-68
2021/10/22 08:53:52;;;;;;;5.57;5.27;;;12.30;99.90;;;;;;5042069;28;20175;-67
2021/10/22 08:56:19;;;;;;;6.70;5.63;;;12.30;99.90;;;;;;5030272;28;20187;-67
2021/10/22 08:58:45;;;;;;;5.53;5.10;;;12.80;99.90;;;;;;5035526;28;20186;-68
2021/10/22 09:01:11;;;;;;;6.30;5.73;;;12.60;99.90;;;;;;5050470;28;20194;-68
2021/10/22 09:03:39;;;;;;;5.70;5.30;;;12.10;99.90;;;;;;5045326;28;20232;-67
2021/10/22 09:06:13;;;;;;;6.33;5.90;;;11.80;99.90;;;;;;5030453;28;20697;-66
2021/10/22 09:08:41;;;;;;;7.07;6.63;;;11.60;99.90;;;;;;5033436;28;20179;-66
2021/10/22 09:11:31;;;;;;;6.23;5.77;;;11.30;99.90;;;;;;5047653;28;20215;-69
2021/10/22 09:14:06;;;;;;;5.70;5.40;;;10.90;99.90;;;;;;5044628;28;20281;-67
2021/10/22 09:16:40;;;;;;;5.73;5.33;;;10.80;99.90;;;;;;5033424;28;20203;-67
2021/10/22 09:19:06;;;;;;;6.20;5.80;;;10.70;99.90;;;;;;5039602;28;20269;-67
2021/10/22 09:21:32;;;;;;;6.43;5.80;;;10.90;99.90;;;;;;5049238;28;20329;-67
2021/10/22 09:24:18;;;;;;;6.23;5.70;;;11.10;99.90;;;;;;5033354;28;20175;-66
2021/10/22 09:26:56;;;;;;;8.17;5.93;;;11.10;99.90;;;;;;5044091;28;20175;-66
2021/10/22 09:29:25;;;;;;;6.03;5.63;;;11.00;99.90;;;;;;5052548;28;20194;-67
2021/10/22 09:31:52;;;;;;;6.33;5.73;;;11.10;99.90;;;;;;5042447;28;20688;-66
2021/10/22 09:34:37;;;;;;;6.13;5.63;;;11.30;99.90;;;;;;5032827;28;20576;-67
2021/10/22 09:37:12;;;;;;;6.50;5.97;;;11.10;99.90;;;;;;5044936;28;20296;-66
2021/10/22 09:39:39;;;;;;;5.80;5.30;;;10.90;99.90;;;;;;5053419;28;20232;-67
2021/10/22 09:42:13;;;;;;;6.33;5.83;;;10.90;99.90;;;;;;5042881;28;20179;-66
2021/10/22 09:44:44;;;;;;;5.40;5.10;;;10.80;99.90;;;;;;5033794;28;20182;-66
2021/10/22 09:47:18;;;;;;;5.60;5.13;;;11.00;99.90;;;;;;5044183;28;20189;-67
2021/10/22 09:49:51;;;;;;;6.33;5.77;;;11.50;99.90;;;;;;5051892;28;20257;-66
2021/10/22 09:52:29;;;;;;;5.87;5.47;;;11.90;99.90;;;;;;5053451;28;20270;-69
2021/10/22 09:55:17;;;;;;;5.53;5.23;;;12.50;99.90;;;;;;5049512;28;20289;-68
2021/10/22 09:58:06;;;;;;;5.53;5.20;;;12.90;99.90;;;;;;5032903;28;20199;-66
2021/10/22 10:00:36;;;;;;;5.30;4.80;;;13.10;99.90;;;;;;5038565;28;20329;-66
2021/10/22 10:03:04;;;;;;;6.47;4.93;;;13.60;99.90;;;;;;5052370;28;20186;-67
2021/10/22 10:05:30;;;;;;;6.17;5.07;;;13.70;99.90;;;;;;5051700;28;20573;-65
2021/10/22 10:07:59;;;;;;;7.17;5.53;;;13.50;99.90;;;;;;5053361;28;20179;-66
2021/10/22 10:10:25;;;;;;;7.13;6.53;;;13.50;99.90;;;;;;5076678;22;20272;-67
2021/10/22 10:12:51;;;;;;;5.57;5.23;;;13.30;99.90;;;;;;5073384;28;20174;-67
2021/10/22 10:15:17;;;;;;;5.73;5.33;;;13.20;99.90;;;;;;5072639;28;20180;-67
2021/10/22 10:17:46;;;;;;;5.70;5.30;;;13.00;99.90;;;;;;5072714;28;20663;-68
2021/10/22 10:20:18;;;;;;;5.10;4.80;;;12.90;99.90;;;;;;5052992;28;20175;-67
2021/10/22 10:22:46;;;;;;;5.90;5.40;;;13.10;99.90;;;;;;5053498;28;20220;-68
2021/10/22 10:25:12;;;;;;;5.80;5.40;;;13.10;99.90;;;;;;5070427;28;20709;-68
2021/10/22 10:27:51;;;;;;;10.93;7.10;;;13.00;99.90;;;;;;5073180;28;20243;-68
2021/10/22 10:30:39;;;;;;;6.07;5.13;;;12.90;99.90;;;;;;5052749;28;20183;-67
2021/10/22 10:33:07;;;;;;;5.93;5.60;;;13.20;99.90;;;;;;5054369;28;20262;-68
2021/10/22 10:35:38;;;;;;;5.00;4.67;;;13.10;99.90;;;;;;5069012;28;20553;-68
2021/10/22 10:38:11;;;;;;;5.73;5.30;;;13.30;99.90;;;;;;5071690;28;20363;-68
2021/10/22 10:40:37;;;;;;;5.30;4.90;;;13.30;99.90;;;;;;5071590;28;20274;-68
2021/10/22 10:43:19;;;;;;;5.63;5.23;;;13.40;99.90;;;;;;5072230;28;20162;-67
2021/10/22 10:45:45;;;;;;;6.10;5.13;;;13.40;99.90;;;;;;5052344;28;20174;-68
2021/10/22 10:48:18;;;;;;;7.07;6.40;;;13.30;99.90;;;;;;5067315;28;20324;-67
2021/10/22 10:51:04;;;;;;;6.07;5.63;;;13.30;99.90;;;;;;5051752;28;20241;-66
2021/10/22 10:53:33;;;;;;;5.93;5.53;;;13.00;99.90;;;;;;5052237;28;20224;-68
2021/10/22 10:55:59;;;;;;;6.17;5.87;;;13.20;99.90;;;;;;5052057;28;20735;-67
2021/10/22 10:58:25;;;;;;;5.83;5.40;;;13.30;99.90;;;;;;5070902;28;20194;-68
2021/10/22 11:01:01;;;;;;;5.30;4.90;;;13.60;99.90;;;;;;5054349;28;20210;-68
2021/10/22 11:03:42;;;;;;;5.53;5.07;;;14.00;99.90;;;;;;5052552;28;20659;-67
2021/10/22 11:06:09;;;;;;;5.50;5.10;;;14.30;99.90;;;;;;5070896;28;20193;-68
2021/10/22 11:08:34;;;;;;;8.10;6.30;;;14.00;99.90;;;;;;5071969;28;20178;-67
2021/10/22 11:11:13;;;;;;;9.43;6.77;;;14.00;99.90;;;;;;5054106;28;20211;-69
2021/10/22 11:13:41;;;;;;;6.77;6.20;;;13.90;99.90;;;;;;5052068;28;20182;-68
2021/10/22 11:19:02;;;;;;;5.53;5.23;;;14.40;99.90;;;;;;5071849;28;20170;-65
2021/10/22 11:21:30;;;;;;;5.67;5.27;;;14.30;99.90;;;;;;5052176;28;20690;-68
2021/10/22 11:23:57;;;;;;;7.53;6.73;;;13.90;99.90;;;;;;5050695;28;20178;-68
2021/10/22 11:26:23;;;;;;;6.50;6.00;;;13.50;99.90;;;;;;5069612;28;20651;-67
2021/10/22 11:28:50;;;;;;;6.20;5.80;;;13.00;99.90;;;;;;5071765;28;20174;-68
2021/10/22 11:31:39;;;;;;;9.77;5.83;;;12.90;99.90;;;;;;5054552;28;20247;-67
2021/10/22 11:34:07;;;;;;;5.57;5.27;;;13.30;99.90;;;;;;5051984;28;20212;-67
2021/10/22 11:36:33;;;;;;;6.33;5.20;;;13.50;99.90;;;;;;5069469;28;20738;-68
2021/10/22 11:39:00;;;;;;;6.13;5.63;;;13.70;99.90;;;;;;5071355;28;20166;-66
2021/10/22 11:41:27;;;;;;;5.73;5.17;;;14.10;99.90;;;;;;5058262;28;20213;-69
2021/10/22 11:44:01;;;;;;;7.03;6.40;;;14.30;99.90;;;;;;5071656;28;20258;-67
2021/10/22 11:46:44;;;;;;;12.83;9.70;;;14.60;99.90;;;;;;5071570;28;20176;-68
2021/10/22 11:49:48;;;;;;;6.30;5.80;;;14.60;99.90;;;;;;5053342;28;20263;-68
2021/10/22 11:52:17;;;;;;;8.47;7.60;;;14.30;99.90;;;;;;5048977;28;20709;-67
2021/10/22 11:54:50;;;;;;;7.47;6.73;;;14.30;99.90;;;;;;5071384;28;20634;-67
2021/10/22 11:57:24;;;;;;;8.07;7.30;;;14.10;99.90;;;;;;5069977;28;20233;-66
2021/10/22 11:59:58;;;;;;;7.57;5.80;;;13.70;99.90;;;;;;5051078;28;20636;-68
2021/10/22 12:02:31;;;;;;;8.40;7.33;;;13.30;99.90;;;;;;5052304;28;20188;-68
2021/10/22 12:04:59;;;;;;;6.63;6.07;;;12.90;99.90;;;;;;5071423;28;20252;-68
2021/10/22 12:07:28;;;;;;;6.70;6.03;;;12.70;99.90;;;;;;5070026;28;20596;-68
2021/10/22 12:09:55;;;;;;;6.63;6.03;;;12.60;99.90;;;;;;5054526;28;20239;-67
2021/10/22 12:12:21;;;;;;;6.63;6.03;;;12.50;99.90;;;;;;5070968;28;20235;-68
2021/10/22 12:14:49;;;;;;;9.40;6.30;;;12.50;99.90;;;;;;5070853;28;20181;-68
2021/10/22 12:17:26;;;;;;;11.10;7.80;;;12.40;99.90;;;;;;5071212;28;20281;-68
2021/10/22 12:19:53;;;;;;;7.40;6.77;;;12.40;99.90;;;;;;5070667;28;20186;-68
2021/10/22 12:22:28;;;;;;;6.47;5.90;;;12.30;99.90;;;;;;5070330;28;20201;-67
2021/10/22 12:24:56;;;;;;;8.40;6.40;;;12.20;99.90;;;;;;5051071;28;20167;-68
2021/10/22 12:27:29;;;;;;;6.87;6.27;;;12.10;99.90;;;;;;5050633;28;20175;-68
2021/10/22 12:30:05;;;;;;;10.70;7.60;;;12.00;99.90;;;;;;5069976;28;20178;-68
2021/10/22 12:32:35;;;;;;;7.97;7.37;;;12.00;99.90;;;;;;5055917;28;20636;-66
2021/10/22 12:35:03;;;;;;;8.03;6.10;;;12.00;99.90;;;;;;5049437;28;20194;-67
2021/10/22 12:37:43;;;;;;;11.47;8.03;;;11.80;99.90;;;;;;5065670;28;20606;-66
2021/10/22 12:40:18;;;;;;;13.27;9.13;;;11.70;99.90;;;;;;5070793;28;20193;-66
2021/10/22 12:42:44;;;;;;;8.73;6.90;;;11.60;99.90;;;;;;5053659;28;20316;-66
2021/10/22 12:45:19;;;;;;;13.13;8.80;;;11.60;99.90;;;;;;5051444;28;20179;-66
2021/10/22 12:47:46;;;;;;;20.17;11.87;;;11.60;99.90;;;;;;5071020;28;20538;-66
2021/10/22 12:50:13;;;;;;;10.53;8.60;;;11.70;99.90;;;;;;5073878;28;20178;-65
2021/10/22 12:52:40;;;;;;;7.43;6.73;;;11.80;99.90;;;;;;5054220;28;20201;-67
2021/10/22 12:55:19;;;;;;;12.80;8.07;;;11.90;99.90;;;;;;5054212;28;20179;-66
2021/10/22 12:57:45;;;;;;;18.83;11.13;;;12.10;99.90;;;;;;5054585;28;20663;-67
2021/10/22 13:00:26;;;;;;;14.67;10.13;;;12.00;99.90;;;;;;5053862;28;20171;-66
2021/10/22 13:02:52;;;;;;;11.57;8.60;;;12.10;99.90;;;;;;5074542;28;20233;-67
2021/10/22 13:05:22;;;;;;;7.60;6.97;;;12.10;99.90;;;;;;5073900;28;20166;-66